createdAt,value
2018-11-06T00:02:23.644Z,10.72
2018-11-06T00:04:57.024Z,10.72
2018-11-06T00:07:25.099Z,10.70
2018-11-06T00:09:53.173Z,10.67
2018-11-06T00:12:21.251Z,10.65
2018-11-06T00:14:49.341Z,10.62
2018-11-06T00:17:17.454Z,10.62
2018-11-06T00:19:45.531Z,10.60
2018-11-06T00:22:13.602Z,10.58
2018-11-06T00:24:41.647Z,10.58
2018-11-06T00:27:09.739Z,10.58
2018-11-06T00:29:37.792Z,10.57
2018-11-06T00:32:05.891Z,10.56
2018-11-06T00:34:33.951Z,10.56
2018-11-06T00:37:02.025Z,10.55
2018-11-06T00:39:30.084Z,10.53
2018-11-06T00:41:58.162Z,10.52
2018-11-06T00:44:26.203Z,10.55
2018-11-06T00:46:54.271Z,10.55
2018-11-06T00:49:22.336Z,10.56
2018-11-06T00:51:50.420Z,10.57
2018-11-06T00:54:18.478Z,10.57
2018-11-06T00:56:46.577Z,10.60
2018-11-06T00:59:14.632Z,10.60
2018-11-06T01:01:42.727Z,10.61
2018-11-06T01:04:13.131Z,10.62
2018-11-06T01:06:41.248Z,10.62
2018-11-06T01:09:11.948Z,10.63
2018-11-06T01:11:40.741Z,10.66
2018-11-06T01:14:09.004Z,10.67
2018-11-06T01:16:37.083Z,10.65
2018-11-06T01:19:05.453Z,10.66
2018-11-06T01:21:33.592Z,10.64
2018-11-06T01:24:01.668Z,10.63
2018-11-06T01:26:29.735Z,10.64
2018-11-06T01:28:57.815Z,10.65
2018-11-06T01:31:26.120Z,10.63
2018-11-06T01:33:54.191Z,10.61
2018-11-06T01:36:22.280Z,10.60
2018-11-06T01:38:50.357Z,10.59
2018-11-06T01:41:18.511Z,10.58
2018-11-06T01:43:46.664Z,10.57
2018-11-06T01:46:14.740Z,10.59
2018-11-06T01:48:42.840Z,10.59
2018-11-06T01:51:10.900Z,10.58
2018-11-06T01:53:38.996Z,10.56
2018-11-06T01:56:07.093Z,10.57
2018-11-06T01:58:35.404Z,10.56
2018-11-06T02:01:03.589Z,10.55
2018-11-06T02:03:31.665Z,10.58
2018-11-06T02:05:59.740Z,10.59
2018-11-06T02:08:27.816Z,10.61
2018-11-06T02:10:55.876Z,10.62
2018-11-06T02:13:23.964Z,10.61
2018-11-06T02:15:52.058Z,10.60
2018-11-06T02:18:20.133Z,10.57
2018-11-06T02:20:48.205Z,10.53
2018-11-06T02:23:16.271Z,10.52
2018-11-06T02:25:44.337Z,10.49
2018-11-06T02:28:12.403Z,10.46
2018-11-06T02:30:40.481Z,10.47
2018-11-06T02:33:08.559Z,10.47
2018-11-06T02:35:36.619Z,10.44
2018-11-06T02:38:04.772Z,10.41
2018-11-06T02:40:32.829Z,10.35
2018-11-06T02:43:00.909Z,10.32
2018-11-06T02:45:28.980Z,10.35
2018-11-06T02:47:57.059Z,10.37
2018-11-06T02:50:25.149Z,10.38
2018-11-06T02:52:53.242Z,10.37
2018-11-06T02:55:21.307Z,10.34
2018-11-06T02:57:49.400Z,10.25
2018-11-06T03:00:18.064Z,10.25
2018-11-06T03:02:47.167Z,10.26
2018-11-06T03:05:16.210Z,10.27
2018-11-06T03:07:44.319Z,10.28
2018-11-06T03:10:13.264Z,10.29
2018-11-06T03:12:42.419Z,10.26
2018-11-06T03:15:11.716Z,10.23
2018-11-06T03:17:39.783Z,10.16
2018-11-06T03:20:08.944Z,10.08
2018-11-06T03:22:37.029Z,10.04
2018-11-06T03:25:05.319Z,10.08
2018-11-06T03:27:33.428Z,10.11
2018-11-06T03:30:01.558Z,10.12
2018-11-06T03:32:29.655Z,10.11
2018-11-06T03:34:57.841Z,10.12
2018-11-06T03:37:25.916Z,10.14
2018-11-06T03:39:53.979Z,10.14
2018-11-06T03:42:22.051Z,10.16
2018-11-06T03:44:50.128Z,10.19
2018-11-06T03:47:18.192Z,10.18
2018-11-06T03:49:46.276Z,10.17
2018-11-06T03:52:14.347Z,10.19
2018-11-06T03:54:42.426Z,10.21
2018-11-06T03:57:10.507Z,10.24
2018-11-06T03:59:38.585Z,10.25
2018-11-06T04:02:06.672Z,10.23
2018-11-06T04:04:34.760Z,10.25
2018-11-06T04:07:02.840Z,10.27
2018-11-06T04:09:30.926Z,10.31
2018-11-06T04:11:59.009Z,10.33
2018-11-06T04:14:27.096Z,10.32
2018-11-06T04:16:55.172Z,10.33
2018-11-06T04:19:23.248Z,10.33
2018-11-06T04:21:51.324Z,10.34
2018-11-06T04:24:19.401Z,10.37
2018-11-06T04:26:47.476Z,10.41
2018-11-06T04:29:15.546Z,10.41
2018-11-06T04:31:43.615Z,10.42
2018-11-06T04:34:11.682Z,10.42
2018-11-06T04:36:39.751Z,10.44
2018-11-06T04:39:09.265Z,10.44
2018-11-06T04:41:37.325Z,10.44
2018-11-06T04:44:06.214Z,10.42
2018-11-06T04:46:34.292Z,10.43
2018-11-06T04:49:02.368Z,10.46
2018-11-06T04:51:30.432Z,10.49
2018-11-06T04:53:59.327Z,10.52
2018-11-06T04:56:28.218Z,10.55
2018-11-06T04:58:56.317Z,10.57
2018-11-06T05:01:24.757Z,10.53
2018-11-06T05:03:52.827Z,10.52
2018-11-06T05:06:20.897Z,10.50
2018-11-06T05:08:49.001Z,10.51
2018-11-06T05:11:17.081Z,10.52
2018-11-06T05:13:45.168Z,10.54
2018-11-06T05:16:13.238Z,10.49
2018-11-06T05:18:41.321Z,10.51
2018-11-06T05:21:09.395Z,10.52
2018-11-06T05:23:37.472Z,10.53
2018-11-06T05:26:05.566Z,10.55
2018-11-06T05:28:33.735Z,10.57
2018-11-06T05:31:01.820Z,10.58
2018-11-06T05:33:29.873Z,10.58
2018-11-06T05:35:57.954Z,10.59
2018-11-06T05:38:26.012Z,10.61
2018-11-06T05:41:13.482Z,10.63
2018-11-06T05:43:41.564Z,10.63
2018-11-06T05:46:10.089Z,10.62
2018-11-06T05:48:38.985Z,10.60
2018-11-06T05:51:07.056Z,10.62
2018-11-06T05:53:35.127Z,10.62
2018-11-06T05:56:03.204Z,10.61
2018-11-06T05:58:31.266Z,10.57
2018-11-06T06:00:59.339Z,10.55
2018-11-06T06:03:27.424Z,10.52
2018-11-06T06:05:55.489Z,10.50
2018-11-06T06:08:23.547Z,10.51
2018-11-06T06:10:51.642Z,10.51
2018-11-06T06:13:19.705Z,10.46
2018-11-06T06:15:47.773Z,10.44
2018-11-06T06:18:15.849Z,10.40
2018-11-06T06:20:43.966Z,10.36
2018-11-06T06:23:12.347Z,10.39
2018-11-06T06:25:40.427Z,10.37
2018-11-06T06:28:08.520Z,10.39
2018-11-06T06:30:36.654Z,10.39
2018-11-06T06:33:04.855Z,10.39
2018-11-06T06:35:33.259Z,10.41
2018-11-06T06:38:01.398Z,10.44
2018-11-06T06:40:29.540Z,10.48
2018-11-06T06:42:57.643Z,10.51
2018-11-06T06:45:25.816Z,10.56
2018-11-06T06:50:28.487Z,10.60
2018-11-06T06:52:56.638Z,10.59
2018-11-06T06:55:24.797Z,10.60
2018-11-06T06:57:52.928Z,10.62
2018-11-06T07:00:22.143Z,10.65
2018-11-06T07:02:50.367Z,10.66
2018-11-06T07:05:19.836Z,10.61
2018-11-06T07:07:48.010Z,10.60
2018-11-06T07:10:17.677Z,10.63
2018-11-06T07:12:46.727Z,10.69
2018-11-06T07:15:16.013Z,10.71
2018-11-06T07:17:45.016Z,10.71
2018-11-06T07:20:14.441Z,10.65
2018-11-06T07:22:42.572Z,10.62
2018-11-06T07:25:11.541Z,10.55
2018-11-06T07:27:40.412Z,10.48
2018-11-06T07:30:10.444Z,10.48
2018-11-06T07:32:38.949Z,10.50
2018-11-06T07:35:08.635Z,10.52
2018-11-06T07:37:37.029Z,10.55
2018-11-06T07:40:05.912Z,10.57
2018-11-06T07:42:34.016Z,10.59
2018-11-06T07:45:02.110Z,10.56
2018-11-06T07:47:30.548Z,10.55
2018-11-06T07:49:58.751Z,10.54
2018-11-06T07:52:26.851Z,10.50
2018-11-06T07:54:54.981Z,10.47
2018-11-06T07:57:23.073Z,10.44
2018-11-06T07:59:51.169Z,10.46
2018-11-06T08:02:19.583Z,10.50
2018-11-06T08:04:47.715Z,10.54
2018-11-06T08:07:15.820Z,10.62
2018-11-06T08:09:43.881Z,10.69
2018-11-06T08:12:11.934Z,10.73
2018-11-06T08:14:40.048Z,10.75
2018-11-06T08:17:08.372Z,10.69
2018-11-06T08:19:36.433Z,10.67
2018-11-06T08:22:04.520Z,10.66
2018-11-06T08:24:32.590Z,10.65
2018-11-06T08:27:00.663Z,10.67
2018-11-06T08:29:34.472Z,10.68
2018-11-06T08:32:06.798Z,10.65
2018-11-06T08:34:34.811Z,10.64
2018-11-06T08:37:02.912Z,10.61
2018-11-06T08:39:30.970Z,10.59
2018-11-06T08:41:59.056Z,10.62
2018-11-06T08:44:27.105Z,10.61
2018-11-06T08:46:55.195Z,10.58
2018-11-06T08:49:23.283Z,10.53
2018-11-06T08:51:51.378Z,10.56
2018-11-06T08:54:19.455Z,10.62
2018-11-06T08:56:47.532Z,10.65
2018-11-06T08:59:15.648Z,10.68
2018-11-06T09:01:43.776Z,10.76
2018-11-06T09:04:11.852Z,10.85
2018-11-06T09:06:39.996Z,10.93
2018-11-06T09:09:08.795Z,10.97
2018-11-06T09:11:36.905Z,11.03
2018-11-06T09:14:05.010Z,11.10
2018-11-06T09:16:33.025Z,11.16
2018-11-06T09:19:01.097Z,11.19
2018-11-06T09:21:29.152Z,11.18
2018-11-06T09:23:57.228Z,11.23
2018-11-06T09:26:25.292Z,11.29
2018-11-06T09:28:53.475Z,11.36
2018-11-06T09:31:21.553Z,11.46
2018-11-06T09:33:49.649Z,11.56
2018-11-06T09:36:17.751Z,11.71
2018-11-06T09:38:45.820Z,11.83
2018-11-06T09:41:14.278Z,11.88
2018-11-06T09:43:42.364Z,11.93
2018-11-06T09:46:10.437Z,12.03
2018-11-06T09:48:38.894Z,12.13
2018-11-06T09:51:07.872Z,12.39
2018-11-06T09:59:03.522Z,13.25
2018-11-06T10:01:31.853Z,13.47
2018-11-06T10:03:59.936Z,13.70
2018-11-06T10:06:28.188Z,13.91
2018-11-06T10:08:56.200Z,14.09
2018-11-06T10:11:24.299Z,14.22
2018-11-06T10:13:52.368Z,14.39
2018-11-06T10:16:20.464Z,14.48
2018-11-06T10:18:48.656Z,14.52
2018-11-06T10:21:16.748Z,14.57
2018-11-06T10:23:44.863Z,14.64
2018-11-06T10:26:12.933Z,14.72
2018-11-06T10:28:41.017Z,14.75
2018-11-06T10:31:09.080Z,14.78
2018-11-06T10:33:37.200Z,14.79
2018-11-06T10:36:05.442Z,14.78
2018-11-06T10:38:33.516Z,14.75
2018-11-06T10:41:01.601Z,14.77
2018-11-06T10:43:29.697Z,14.76
2018-11-06T10:45:57.752Z,14.79
2018-11-06T10:48:26.104Z,14.85
2018-11-06T10:50:54.178Z,14.91
2018-11-06T10:53:22.238Z,14.96
2018-11-06T10:55:50.308Z,14.95
2018-11-06T10:58:18.406Z,14.96
2018-11-06T11:00:51.817Z,14.99
2018-11-06T11:03:25.149Z,15.03
2018-11-06T11:05:53.232Z,15.14
2018-11-06T11:08:21.284Z,15.22
2018-11-06T11:10:49.380Z,15.31
2018-11-06T11:13:17.548Z,15.43
2018-11-06T11:15:45.540Z,15.52
2018-11-06T11:18:13.611Z,15.59
2018-11-06T11:20:41.704Z,15.60
2018-11-06T11:23:09.777Z,15.73
2018-11-06T11:25:37.894Z,15.89
2018-11-06T11:28:05.954Z,16.02
2018-11-06T11:30:34.048Z,16.12
2018-11-06T11:33:02.114Z,16.28
2018-11-06T11:35:30.220Z,16.38
2018-11-06T11:37:58.309Z,16.48
2018-11-06T11:40:26.385Z,16.54
2018-11-06T11:42:54.446Z,16.52
2018-11-06T11:45:22.512Z,16.62
2018-11-06T11:47:50.592Z,16.60
2018-11-06T11:50:18.655Z,16.50
2018-11-06T11:52:46.729Z,16.38
2018-11-06T11:55:14.833Z,16.39
2018-11-06T11:57:43.779Z,16.54
2018-11-06T12:00:14.245Z,16.72
2018-11-06T12:02:42.338Z,16.88
2018-11-06T12:05:11.224Z,17.03
2018-11-06T12:07:39.289Z,17.05
2018-11-06T12:10:08.889Z,17.16
2018-11-06T12:12:36.944Z,17.31
2018-11-06T12:15:07.000Z,17.42
2018-11-06T12:17:35.080Z,17.49
2018-11-06T12:20:03.133Z,17.50
2018-11-06T12:22:31.196Z,17.40
2018-11-06T12:24:59.445Z,17.35
2018-11-06T12:27:27.348Z,17.36
2018-11-06T12:29:55.401Z,17.33
2018-11-06T12:32:23.470Z,17.28
2018-11-06T12:34:51.516Z,17.31
2018-11-06T12:37:19.584Z,17.28
2018-11-06T12:39:47.697Z,17.15
2018-11-06T12:42:15.756Z,17.14
2018-11-06T12:44:44.092Z,17.17
2018-11-06T12:47:12.212Z,17.20
2018-11-06T12:49:40.261Z,17.13
2018-11-06T12:52:08.314Z,17.02
2018-11-06T12:54:36.424Z,16.97
2018-11-06T12:57:04.485Z,16.94
2018-11-06T12:59:32.524Z,16.89
2018-11-06T13:02:00.596Z,16.86
2018-11-06T13:04:28.660Z,16.83
2018-11-06T13:06:56.797Z,16.85
2018-11-06T13:09:24.894Z,16.86
2018-11-06T13:11:52.983Z,16.82
2018-11-06T13:14:21.076Z,16.73
2018-11-06T13:16:49.170Z,16.58
2018-11-06T13:19:17.242Z,16.55
2018-11-06T13:21:45.348Z,16.59
2018-11-06T13:24:13.444Z,16.63
2018-11-06T13:26:41.642Z,16.63
2018-11-06T13:29:09.677Z,16.64
2018-11-06T13:31:37.744Z,16.62
2018-11-06T13:34:05.829Z,16.62
2018-11-06T13:36:33.891Z,16.60
2018-11-06T13:39:01.980Z,16.58
2018-11-06T13:41:30.063Z,16.56
2018-11-06T13:43:58.290Z,16.54
2018-11-06T13:46:26.221Z,16.48
2018-11-06T13:48:54.312Z,16.46
2018-11-06T13:51:22.369Z,16.47
2018-11-06T13:53:50.464Z,16.46
2018-11-06T13:56:18.584Z,16.45
2018-11-06T13:58:46.660Z,16.43
2018-11-06T14:01:14.767Z,16.39
2018-11-06T14:03:42.868Z,16.34
2018-11-06T14:06:10.937Z,16.31
2018-11-06T14:08:39.026Z,16.31
2018-11-06T14:11:07.080Z,16.32
2018-11-06T14:13:35.164Z,16.31
2018-11-06T14:16:03.228Z,16.29
2018-11-06T14:18:31.341Z,16.27
2018-11-06T14:20:59.397Z,16.28
2018-11-06T14:23:27.477Z,16.27
2018-11-06T14:25:55.524Z,16.27
2018-11-06T14:28:23.584Z,16.24
2018-11-06T14:30:51.655Z,16.23
2018-11-06T14:33:19.725Z,16.20
2018-11-06T14:35:47.845Z,16.17
2018-11-06T14:38:15.897Z,16.14
2018-11-06T14:40:43.980Z,16.11
2018-11-06T14:43:12.048Z,16.07
2018-11-06T14:45:40.132Z,16.06
2018-11-06T14:48:08.229Z,16.05
2018-11-06T14:50:36.280Z,16.06
2018-11-06T14:53:04.392Z,16.04
2018-11-06T14:55:32.464Z,16.01
2018-11-06T14:58:00.522Z,15.96
2018-11-06T15:00:28.617Z,15.89
2018-11-06T15:02:56.671Z,15.82
2018-11-06T15:05:24.784Z,15.75
2018-11-06T15:07:52.803Z,15.65
2018-11-06T15:10:20.875Z,15.55
2018-11-06T15:12:49.013Z,15.46
2018-11-06T15:15:17.637Z,15.37
2018-11-06T15:17:46.596Z,15.31
2018-11-06T15:20:17.060Z,15.28
2018-11-06T15:22:45.523Z,15.24
2018-11-06T15:25:14.356Z,15.19
2018-11-06T15:27:42.408Z,15.12
2018-11-06T15:30:12.505Z,15.08
2018-11-06T15:32:41.187Z,15.00
2018-11-06T15:35:10.439Z,14.95
2018-11-06T15:37:38.761Z,14.90
2018-11-06T15:40:09.912Z,14.82
2018-11-06T15:42:38.050Z,14.74
2018-11-06T15:45:06.964Z,14.67
2018-11-06T15:47:35.049Z,14.60
2018-11-06T15:50:03.305Z,14.54
2018-11-06T15:52:31.389Z,14.49
2018-11-06T15:54:59.821Z,14.42
2018-11-06T15:57:27.892Z,14.35
2018-11-06T15:59:55.964Z,14.29
2018-11-06T16:02:24.081Z,14.21
2018-11-06T16:04:52.149Z,14.14
2018-11-06T16:07:20.232Z,14.07
2018-11-06T16:09:48.325Z,14.02
2018-11-06T16:12:16.472Z,13.97
2018-11-06T16:14:44.682Z,13.96
2018-11-06T16:17:12.812Z,13.95
2018-11-06T16:19:40.893Z,13.92
2018-11-06T16:22:09.081Z,13.89
2018-11-06T16:24:37.248Z,13.88
2018-11-06T16:27:05.828Z,13.89
2018-11-06T16:29:33.934Z,13.89
2018-11-06T16:32:02.092Z,13.87
2018-11-06T16:34:30.221Z,13.86
2018-11-06T16:36:58.296Z,13.85
2018-11-06T16:39:26.421Z,13.83
2018-11-06T16:41:54.565Z,13.81
2018-11-06T16:44:22.645Z,13.80
2018-11-06T16:46:50.796Z,13.78
2018-11-06T16:49:18.867Z,13.76
2018-11-06T16:51:46.945Z,13.75
2018-11-06T16:54:15.008Z,13.75
2018-11-06T16:56:43.108Z,13.74
2018-11-06T16:59:11.189Z,13.73
2018-11-06T17:01:39.267Z,13.69
2018-11-06T17:04:07.336Z,13.68
2018-11-06T17:06:39.684Z,13.65
2018-11-06T17:09:08.713Z,13.59
2018-11-06T17:11:37.136Z,13.57
2018-11-06T17:14:05.256Z,13.53
2018-11-06T17:16:33.440Z,13.48
2018-11-06T17:19:01.520Z,13.45
2018-11-06T17:21:29.596Z,13.43
2018-11-06T17:23:57.705Z,13.40
2018-11-06T17:26:25.785Z,13.38
2018-11-06T17:28:53.852Z,13.40
2018-11-06T17:31:21.965Z,13.41
2018-11-06T17:33:50.064Z,13.40
2018-11-06T17:36:18.169Z,13.39
2018-11-06T17:38:46.259Z,13.39
2018-11-06T17:41:14.366Z,13.37
2018-11-06T17:43:42.452Z,13.38
2018-11-06T17:46:10.536Z,13.38
2018-11-06T17:48:38.724Z,13.39
2018-11-06T17:51:06.788Z,13.39
2018-11-06T17:53:34.884Z,13.41
2018-11-06T17:56:03.008Z,13.42
2018-11-06T17:58:31.092Z,13.42
2018-11-06T18:00:59.169Z,13.42
2018-11-06T18:03:27.253Z,13.40
2018-11-06T18:05:55.323Z,13.41
2018-11-06T18:08:23.408Z,13.40
2018-11-06T18:10:51.492Z,13.36
2018-11-06T18:13:19.578Z,13.33
2018-11-06T18:15:47.640Z,13.29
2018-11-06T18:18:15.735Z,13.25
2018-11-06T18:20:43.814Z,13.23
2018-11-06T18:23:11.940Z,13.20
2018-11-06T18:25:40.098Z,13.15
2018-11-06T18:28:08.096Z,13.11
2018-11-06T18:30:36.177Z,13.02
2018-11-06T18:33:04.290Z,12.93
2018-11-06T18:35:32.383Z,12.83
2018-11-06T18:38:00.448Z,12.74
2018-11-06T18:40:28.508Z,12.68
2018-11-06T18:42:56.595Z,12.62
2018-11-06T18:45:24.676Z,12.57
2018-11-06T18:47:52.804Z,12.55
2018-11-06T18:50:20.896Z,12.52
2018-11-06T18:52:50.117Z,12.49
2018-11-06T18:55:18.332Z,12.48
2018-11-06T18:57:46.435Z,12.47
2018-11-06T19:00:15.888Z,12.46
2018-11-06T19:02:45.272Z,12.47
2018-11-06T19:05:13.549Z,12.48
2018-11-06T19:07:41.624Z,12.48
2018-11-06T19:10:10.950Z,12.47
2018-11-06T19:12:39.079Z,12.44
2018-11-06T19:15:09.832Z,12.39
2018-11-06T19:17:37.904Z,12.36
2018-11-06T19:20:06.602Z,12.35
2018-11-06T19:22:35.052Z,12.33
2018-11-06T19:25:03.131Z,12.31
2018-11-06T19:27:31.260Z,12.28
2018-11-06T19:29:59.345Z,12.25
2018-11-06T19:32:27.428Z,12.20
2018-11-06T19:34:55.601Z,12.17
2018-11-06T19:37:23.794Z,12.11
2018-11-06T19:39:53.719Z,12.08
2018-11-06T19:42:22.540Z,12.05
2018-11-06T19:44:50.616Z,12.04
2018-11-06T19:47:18.803Z,12.03
2018-11-06T19:49:46.801Z,12.03
2018-11-06T19:52:14.900Z,12.04
2018-11-06T19:54:42.967Z,12.05
2018-11-06T19:57:11.103Z,12.05
2018-11-06T19:59:39.229Z,12.05
2018-11-06T20:02:07.558Z,12.04
2018-11-06T20:04:35.885Z,12.04
2018-11-06T20:07:03.912Z,12.05
2018-11-06T20:09:32.018Z,12.05
2018-11-06T20:12:00.226Z,12.05
2018-11-06T20:14:28.197Z,12.05
2018-11-06T20:16:56.244Z,12.04
2018-11-06T20:19:24.620Z,12.02
2018-11-06T20:21:52.695Z,12.00
2018-11-06T20:24:20.808Z,11.95
2018-11-06T20:26:48.902Z,11.91
2018-11-06T20:29:17.033Z,11.87
2018-11-06T20:31:45.166Z,11.87
2018-11-06T20:34:13.590Z,11.89
2018-11-06T20:36:41.663Z,11.90
2018-11-06T20:39:10.568Z,11.92
2018-11-06T20:41:38.713Z,11.93
2018-11-06T20:44:06.840Z,11.94
2018-11-06T20:46:35.294Z,11.96
2018-11-06T20:49:03.962Z,11.97
2018-11-06T20:51:31.996Z,12.01
2018-11-06T20:54:00.062Z,12.03
2018-11-06T20:56:28.204Z,12.05
2018-11-06T20:58:56.377Z,12.06
2018-11-06T21:01:24.513Z,12.08
2018-11-06T21:03:52.614Z,12.07
2018-11-06T21:06:20.739Z,12.07
2018-11-06T21:08:48.815Z,12.08
2018-11-06T21:11:16.932Z,12.06
2018-11-06T21:13:45.070Z,12.04
2018-11-06T21:16:13.247Z,12.04
2018-11-06T21:18:41.328Z,12.03
2018-11-06T21:21:09.432Z,11.99
2018-11-06T21:23:37.516Z,12.02
2018-11-06T21:26:06.030Z,12.02
2018-11-06T21:28:33.933Z,12.02
2018-11-06T21:31:02.035Z,12.04
2018-11-06T21:33:30.124Z,12.07
2018-11-06T21:35:58.224Z,12.08
2018-11-06T21:38:26.308Z,12.12
2018-11-06T21:40:54.496Z,12.09
2018-11-06T21:43:22.592Z,12.10
2018-11-06T21:45:50.732Z,12.10
2018-11-06T21:48:18.844Z,12.09
2018-11-06T21:50:46.929Z,12.07
2018-11-06T21:53:14.996Z,12.06
2018-11-06T21:55:43.092Z,12.03
2018-11-06T21:58:11.192Z,12.00
2018-11-06T22:00:39.302Z,11.93
2018-11-06T22:03:07.408Z,11.87
2018-11-06T22:05:36.004Z,11.82
2018-11-06T22:08:04.515Z,11.75
2018-11-06T22:10:32.629Z,11.71
2018-11-06T22:13:01.035Z,11.67
2018-11-06T22:15:29.166Z,11.63
2018-11-06T22:17:57.308Z,11.57
2018-11-06T22:20:25.406Z,11.55
2018-11-06T22:22:53.497Z,11.52
2018-11-06T22:25:21.589Z,11.49
2018-11-06T22:27:49.886Z,11.46
2018-11-06T22:30:18.092Z,11.38
2018-11-06T22:32:46.755Z,11.35
2018-11-06T22:35:16.729Z,11.34
2018-11-06T22:37:45.188Z,11.34
2018-11-06T22:40:14.673Z,11.33
2018-11-06T22:42:42.952Z,11.33
2018-11-06T22:45:13.249Z,11.33
2018-11-06T22:47:41.666Z,11.31
2018-11-06T22:50:11.769Z,11.35
2018-11-06T22:52:40.081Z,11.39
2018-11-06T22:55:08.477Z,11.41
2018-11-06T22:57:36.585Z,11.43
2018-11-06T23:00:08.940Z,11.46
2018-11-06T23:02:37.805Z,11.48
2018-11-06T23:05:06.251Z,11.50
2018-11-06T23:08:37.220Z,11.52
2018-11-06T23:11:06.472Z,11.50
2018-11-06T23:13:34.572Z,11.46
2018-11-06T23:16:02.908Z,11.45
2018-11-06T23:18:31.001Z,11.45
2018-11-06T23:20:59.132Z,11.47
2018-11-06T23:23:27.208Z,11.50
2018-11-06T23:25:55.289Z,11.52
2018-11-06T23:28:23.372Z,11.54
2018-11-06T23:30:51.461Z,11.53
2018-11-06T23:33:19.564Z,11.53
2018-11-06T23:35:47.717Z,11.53
2018-11-06T23:38:15.712Z,11.54
2018-11-06T23:40:43.836Z,11.51
2018-11-06T23:43:11.909Z,11.51
2018-11-06T23:45:39.992Z,11.48
2018-11-06T23:48:08.080Z,11.46
2018-11-06T23:50:36.136Z,11.46
2018-11-06T23:53:04.700Z,11.44
2018-11-06T23:55:32.772Z,11.44
2018-11-06T23:58:00.850Z,11.42
